Terminal Aerodrome Forecast
Issued by NWS

Home | Current Version | Previous Version | Text Only | Print | Product List | Glossary On
Versions: 1 2 3 4 5 6 7 8 9 10 11 12 13 14 15
996
FTUS44 KTSA 181125
TAFRVS
TAF
KRVS 181125Z 1812/1912 00000KT P6SM BKN150
      TEMPO 1812/1816 3SM BR OVC015
     FM181700 14005KT P6SM BKN025
     FM190000 VRB03KT P6SM BKN015
     FM190300 16002KT 4SM BR OVC003=

USA.gov is the U.S. government's official web portal to all federal, state and local government web resources and services.